Time;durP1;ratioP1;P1;durP2;ratioP2;P2;SDS_P1;SDS_P2;PMS_P1;PMS_P2;Temp;Humidity;BMP_temperature;BMP_pressure;BME280_temperature;BME280_humidity;BME280_pressure;Samples;Min_cycle;Max_cycle;Signal;HPM_P1;HPM_P2
2023/04/24 00:00:05;;;;;;;6.33;4.80;;;14.70;1.00;;;;;;5048480;28;20185;-59
2023/04/24 00:02:32;;;;;;;5.80;5.30;;;14.70;1.00;;;;;;5048123;28;20244;-59
2023/04/24 00:05:02;;;;;;;5.30;4.80;;;14.70;1.00;;;;;;5059005;28;20447;-59
2023/04/24 00:07:29;;;;;;;5.13;4.63;;;14.80;1.00;;;;;;5044837;28;20447;-59
2023/04/24 00:09:54;;;;;;;7.33;5.20;;;14.70;1.00;;;;;;5057337;28;21021;-60
2023/04/24 00:12:20;;;;;;;4.93;4.53;;;14.80;1.00;;;;;;5049448;28;20539;-58
2023/04/24 00:14:46;;;;;;;5.83;4.90;;;14.90;1.00;;;;;;5050914;28;20196;-59
2023/04/24 00:17:11;;;;;;;4.87;4.47;;;14.80;1.00;;;;;;5052564;28;20678;-59
2023/04/24 00:19:37;;;;;;;7.23;5.43;;;14.80;1.00;;;;;;5051759;28;20571;-59
2023/04/24 00:22:03;;;;;;;5.23;4.73;;;14.80;1.00;;;;;;5050168;28;20204;-58
2023/04/24 00:24:29;;;;;;;12.33;5.40;;;15.00;1.00;;;;;;5047529;28;20191;-59
2023/04/24 00:26:54;;;;;;;5.83;5.17;;;15.00;1.00;;;;;;5048276;28;20453;-59
2023/04/24 00:29:20;;;;;;;5.67;4.87;;;15.10;1.00;;;;;;5048347;28;20201;-59
2023/04/24 00:31:46;;;;;;;6.17;4.60;;;14.90;1.00;;;;;;5050009;28;20199;-59
2023/04/24 00:34:12;;;;;;;5.87;4.50;;;14.70;1.00;;;;;;5049666;28;20193;-59
2023/04/24 00:36:37;;;;;;;6.00;4.80;;;14.80;1.00;;;;;;5049288;28;20715;-59
2023/04/24 00:39:03;;;;;;;7.60;5.20;;;14.90;1.00;;;;;;5048154;28;20439;-60
2023/04/24 00:41:30;;;;;;;5.53;5.03;;;14.80;1.00;;;;;;5048918;28;20243;-58
2023/04/24 00:43:55;;;;;;;6.30;5.70;;;14.80;1.00;;;;;;5048194;28;20192;-58
2023/04/24 00:46:21;;;;;;;5.00;4.57;;;14.80;1.00;;;;;;5051211;28;20451;-58
2023/04/24 00:48:47;;;;;;;7.37;4.97;;;14.70;1.00;;;;;;5044973;28;20211;-58
2023/04/24 00:51:13;;;;;;;4.73;4.23;;;14.70;1.00;;;;;;5046282;28;20193;-60
2023/04/24 00:53:38;;;;;;;6.63;4.60;;;14.80;1.00;;;;;;5050623;28;20278;-60
2023/04/24 00:56:05;;;;;;;4.80;4.30;;;14.80;1.00;;;;;;5046780;28;20844;-60
2023/04/24 00:58:31;;;;;;;4.70;4.30;;;14.70;1.00;;;;;;5045672;28;20535;-60
2023/04/24 01:00:58;;;;;;;5.47;4.97;;;14.80;1.00;;;;;;5050291;28;20439;-60
2023/04/24 01:03:28;;;;;;;5.23;4.33;;;14.80;1.00;;;;;;5049022;28;20446;-59
2023/04/24 01:05:55;;;;;;;5.10;4.60;;;14.70;1.00;;;;;;5047587;28;20442;-59
2023/04/24 01:08:24;;;;;;;5.33;4.53;;;14.80;1.00;;;;;;5046388;28;20440;-60
2023/04/24 01:10:52;;;;;;;5.83;4.33;;;14.80;1.00;;;;;;5050954;28;20505;-60
2023/04/24 01:13:21;;;;;;;5.03;4.33;;;14.80;1.00;;;;;;5048583;28;20866;-61
2023/04/24 01:15:47;;;;;;;6.97;4.10;;;14.70;1.00;;;;;;5046799;28;20447;-60
2023/04/24 01:18:13;;;;;;;6.27;5.17;;;14.60;1.00;;;;;;5047189;28;20881;-59
2023/04/24 01:20:44;;;;;;;5.00;4.60;;;14.60;1.00;;;;;;5045365;28;20458;-59
2023/04/24 01:23:10;;;;;;;5.47;4.73;;;14.60;1.00;;;;;;5047755;28;20421;-61
2023/04/24 01:25:36;;;;;;;5.70;5.20;;;14.60;1.00;;;;;;5045270;28;20466;-59
2023/04/24 01:28:03;;;;;;;5.50;4.97;;;14.60;1.00;;;;;;5045090;28;20458;-59
2023/04/24 01:30:29;;;;;;;7.07;5.00;;;14.60;1.00;;;;;;5044240;28;20501;-59
2023/04/24 01:32:55;;;;;;;5.13;4.63;;;14.70;1.00;;;;;;5045595;28;20451;-59
2023/04/24 01:35:21;;;;;;;6.23;4.90;;;14.80;1.00;;;;;;5049982;28;20435;-59
2023/04/24 01:37:47;;;;;;;5.10;4.60;;;14.70;1.00;;;;;;5043547;28;20466;-60
2023/04/24 01:40:13;;;;;;;5.20;4.70;;;14.70;1.00;;;;;;5048308;28;20565;-60
2023/04/24 01:42:41;;;;;;;5.50;4.70;;;14.70;1.00;;;;;;5050081;28;20267;-60
2023/04/24 01:45:11;;;;;;;6.17;5.57;;;14.80;1.00;;;;;;5048788;28;20359;-59
2023/04/24 01:47:36;;;;;;;5.20;4.60;;;14.80;1.00;;;;;;5046588;28;20516;-60
2023/04/24 01:50:03;;;;;;;5.50;5.00;;;14.90;1.00;;;;;;5044627;28;20434;-60
2023/04/24 01:52:30;;;;;;;5.80;5.17;;;14.90;1.00;;;;;;5047325;28;20188;-60
2023/04/24 01:54:59;;;;;;;5.23;4.67;;;14.90;1.00;;;;;;5045888;28;21511;-61
2023/04/24 01:57:25;;;;;;;6.13;5.53;;;14.80;1.00;;;;;;5045179;28;20476;-60
2023/04/24 01:59:51;;;;;;;6.93;4.87;;;14.80;1.00;;;;;;5048307;28;20442;-60
2023/04/24 02:02:17;;;;;;;6.90;5.10;;;14.80;1.00;;;;;;5048237;28;20443;-60
2023/04/24 02:04:43;;;;;;;6.50;5.63;;;14.70;1.00;;;;;;5049075;28;20442;-59
2023/04/24 02:07:08;;;;;;;6.00;5.40;;;14.70;1.00;;;;;;5047055;28;20631;-59
2023/04/24 02:09:34;;;;;;;5.07;4.60;;;14.70;1.00;;;;;;5045712;28;20310;-59
2023/04/24 02:12:00;;;;;;;5.40;4.90;;;14.70;1.00;;;;;;5048726;28;20184;-60
2023/04/24 02:14:26;;;;;;;5.07;4.63;;;14.80;1.00;;;;;;5046925;28;20212;-60
2023/04/24 02:16:51;;;;;;;5.83;5.20;;;14.70;1.00;;;;;;5048657;28;20510;-61
2023/04/24 02:19:17;;;;;;;7.70;5.37;;;14.60;1.00;;;;;;5049236;28;20237;-59
2023/04/24 02:21:43;;;;;;;5.50;5.00;;;14.60;1.00;;;;;;5048772;28;20602;-57
2023/04/24 02:24:08;;;;;;;6.17;5.43;;;14.60;1.00;;;;;;5047821;28;20220;-58
2023/04/24 02:26:34;;;;;;;5.50;5.00;;;14.60;1.00;;;;;;5046995;28;20358;-58
2023/04/24 02:28:59;;;;;;;9.47;5.63;;;14.60;1.00;;;;;;5044955;28;20200;-58
2023/04/24 02:31:25;;;;;;;6.10;5.50;;;14.60;1.00;;;;;;5046726;28;20196;-58
2023/04/24 02:33:51;;;;;;;6.50;5.53;;;14.60;1.00;;;;;;5045839;28;20200;-60
2023/04/24 02:36:17;;;;;;;6.27;5.67;;;14.60;1.00;;;;;;5047389;28;20216;-59
2023/04/24 02:38:42;;;;;;;5.60;5.07;;;14.70;1.00;;;;;;5044020;28;20454;-58
2023/04/24 02:41:08;;;;;;;5.87;5.37;;;14.70;1.00;;;;;;5048701;28;20188;-60
2023/04/24 02:43:34;;;;;;;6.30;5.70;;;14.80;1.00;;;;;;5046013;28;20202;-60
2023/04/24 02:45:59;;;;;;;6.87;5.70;;;14.80;1.00;;;;;;5047607;28;20188;-60
2023/04/24 02:48:25;;;;;;;6.47;5.87;;;14.70;1.00;;;;;;5046218;28;20382;-59
2023/04/24 02:50:51;;;;;;;6.57;5.97;;;15.00;1.00;;;;;;5045743;28;20180;-59
2023/04/24 02:53:16;;;;;;;6.00;5.50;;;14.70;1.00;;;;;;5049936;28;20634;-59
2023/04/24 02:55:42;;;;;;;5.37;4.87;;;14.70;1.00;;;;;;5046174;28;20520;-59
2023/04/24 02:58:08;;;;;;;7.20;5.40;;;14.70;1.00;;;;;;5044274;28;20303;-60
2023/04/24 03:00:34;;;;;;;6.90;5.80;;;14.70;1.00;;;;;;5046970;28;20185;-59
2023/04/24 03:03:00;;;;;;;6.40;5.80;;;14.60;1.00;;;;;;5047620;28;20328;-59
2023/04/24 03:05:27;;;;;;;6.90;5.93;;;14.60;1.00;;;;;;5044798;28;20421;-60
2023/04/24 03:07:52;;;;;;;5.23;4.80;;;14.50;1.00;;;;;;5044580;28;20459;-59
2023/04/24 03:10:18;;;;;;;6.93;5.80;;;14.50;1.00;;;;;;5046880;28;20461;-59
2023/04/24 03:12:44;;;;;;;6.80;6.20;;;14.60;1.00;;;;;;5044917;28;20195;-59
2023/04/24 03:15:10;;;;;;;4.83;4.37;;;14.60;1.00;;;;;;5047213;28;20246;-59
2023/04/24 03:17:36;;;;;;;6.20;5.57;;;14.60;1.00;;;;;;5046258;28;20248;-59
2023/04/24 03:20:05;;;;;;;6.03;5.37;;;14.60;1.00;;;;;;5043670;28;20539;-59
2023/04/24 03:22:32;;;;;;;5.87;5.27;;;14.60;1.00;;;;;;5046555;28;20786;-59
2023/04/24 03:24:58;;;;;;;6.27;5.67;;;14.60;1.00;;;;;;5043730;28;20482;-60
2023/04/24 03:27:24;;;;;;;6.20;5.67;;;14.50;1.00;;;;;;5048021;28;20975;-59
2023/04/24 03:29:53;;;;;;;6.53;5.90;;;14.60;1.00;;;;;;5048230;28;20525;-59
2023/04/24 03:32:19;;;;;;;6.17;5.57;;;14.50;1.00;;;;;;5048160;28;20960;-59
2023/04/24 03:34:45;;;;;;;6.23;5.73;;;14.40;1.00;;;;;;5044719;28;20439;-59
2023/04/24 03:37:10;;;;;;;6.30;5.00;;;14.40;1.00;;;;;;5045536;28;20262;-59
2023/04/24 03:39:36;;;;;;;5.67;5.17;;;14.40;1.00;;;;;;5043009;28;20189;-59
2023/04/24 03:42:02;;;;;;;6.17;5.50;;;14.50;1.00;;;;;;5045211;28;20189;-59
2023/04/24 03:44:27;;;;;;;5.80;5.10;;;14.40;1.00;;;;;;5047618;28;20204;-59
2023/04/24 03:46:53;;;;;;;6.80;5.90;;;14.40;1.00;;;;;;5049801;28;21018;-59
2023/04/24 03:49:19;;;;;;;5.63;5.13;;;14.40;1.00;;;;;;5048922;28;20196;-59
2023/04/24 03:51:44;;;;;;;5.87;5.37;;;14.50;1.00;;;;;;5050888;28;20184;-59
2023/04/24 03:54:10;;;;;;;6.00;5.20;;;14.50;1.00;;;;;;5047339;28;20193;-60
2023/04/24 03:56:36;;;;;;;5.20;4.80;;;14.50;1.00;;;;;;5049620;28;20233;-60
2023/04/24 03:59:02;;;;;;;5.57;5.03;;;14.60;1.00;;;;;;5048462;28;20470;-59
2023/04/24 04:01:28;;;;;;;6.20;4.50;;;14.70;1.00;;;;;;5049347;28;20650;-58
2023/04/24 04:03:53;;;;;;;4.47;4.07;;;14.60;1.00;;;;;;5048905;28;20458;-59
2023/04/24 04:06:21;;;;;;;4.53;4.13;;;14.60;1.00;;;;;;5048994;28;20446;-59
2023/04/24 04:08:46;;;;;;;3.83;3.47;;;14.60;1.00;;;;;;5048500;28;20250;-60
2023/04/24 04:11:12;;;;;;;3.43;3.13;;;14.60;1.00;;;;;;5048872;28;20541;-60
2023/04/24 04:13:38;;;;;;;4.80;3.27;;;14.70;1.00;;;;;;5048024;28;20239;-60
2023/04/24 04:16:04;;;;;;;5.33;3.27;;;14.70;1.00;;;;;;5049614;28;20195;-60
2023/04/24 04:18:29;;;;;;;4.47;3.63;;;14.80;1.00;;;;;;5049885;28;20196;-60
2023/04/24 04:20:56;;;;;;;5.13;4.40;;;14.70;1.00;;;;;;5049165;28;20455;-60
2023/04/24 04:23:22;;;;;;;4.03;3.73;;;14.90;1.00;;;;;;5047600;28;20258;-60
2023/04/24 04:25:48;;;;;;;5.63;2.80;;;14.80;1.00;;;;;;5046612;28;20455;-61
2023/04/24 04:28:15;;;;;;;2.83;2.50;;;14.90;1.00;;;;;;5049550;28;20508;-59
2023/04/24 04:30:41;;;;;;;2.40;2.27;;;15.00;1.00;;;;;;5050870;28;20176;-60
2023/04/24 04:33:07;;;;;;;2.47;2.13;;;13.60;1.00;;;;;;5048849;28;20446;-61
2023/04/24 04:35:33;;;;;;;5.60;3.17;;;14.90;1.00;;;;;;5046938;28;20462;-59
2023/04/24 04:37:59;;;;;;;3.50;2.83;;;15.00;1.00;;;;;;5046281;28;20472;-60
2023/04/24 04:40:25;;;;;;;3.27;2.97;;;15.00;1.00;;;;;;5045742;28;21388;-59
2023/04/24 04:42:52;;;;;;;3.53;1.90;;;15.00;1.00;;;;;;5049392;28;20553;-61
2023/04/24 04:45:18;;;;;;;3.00;1.50;;;15.10;1.00;;;;;;5052780;28;20191;-60
2023/04/24 04:47:45;;;;;;;3.90;2.60;;;15.20;1.00;;;;;;5055410;28;20477;-60
2023/04/24 04:50:11;;;;;;;2.50;2.23;;;15.20;1.00;;;;;;5050192;28;20451;-60
2023/04/24 04:52:36;;;;;;;3.40;2.57;;;15.10;1.00;;;;;;5049663;28;20443;-60
2023/04/24 04:55:02;;;;;;;3.30;2.67;;;15.10;1.00;;;;;;5041274;28;20482;-60
2023/04/24 04:57:28;;;;;;;2.70;1.73;;;15.20;1.00;;;;;;5045152;28;20244;-59
2023/04/24 04:59:53;;;;;;;3.33;1.53;;;15.30;1.00;;;;;;5048718;28;20533;-60
2023/04/24 05:02:19;;;;;;;1.53;1.17;;;15.50;1.00;;;;;;5047990;28;20192;-61
2023/04/24 05:04:45;;;;;;;2.03;1.00;;;15.70;1.00;;;;;;5054874;28;20181;-61
2023/04/24 05:07:11;;;;;;;1.23;1.13;;;15.80;1.00;;;;;;5048286;28;20233;-60
2023/04/24 05:09:37;;;;;;;1.50;1.40;;;15.90;1.00;;;;;;5047261;28;20238;-58
2023/04/24 05:12:03;;;;;;;1.43;1.00;;;15.90;1.00;;;;;;5047687;28;20442;-61
2023/04/24 05:14:28;;;;;;;2.57;1.00;;;15.90;1.00;;;;;;5048057;28;21149;-60
2023/04/24 05:16:54;;;;;;;2.63;1.20;;;16.00;1.00;;;;;;5048280;28;20458;-59
2023/04/24 05:19:20;;;;;;;1.60;1.07;;;16.00;1.00;;;;;;5048482;28;20204;-60
2023/04/24 05:21:45;;;;;;;1.50;1.30;;;15.90;1.00;;;;;;5049015;28;20527;-60
2023/04/24 05:24:11;;;;;;;2.53;1.03;;;16.00;1.00;;;;;;5045890;28;20259;-59
2023/04/24 05:26:37;;;;;;;1.40;1.30;;;16.20;1.00;;;;;;5047783;28;20188;-60
2023/04/24 05:29:03;;;;;;;8.63;1.53;;;16.20;1.00;;;;;;5048997;28;20197;-60
2023/04/24 05:31:29;;;;;;;1.80;0.97;;;16.20;1.00;;;;;;5046252;28;20492;-59
2023/04/24 05:33:55;;;;;;;1.93;1.10;;;16.20;1.00;;;;;;5046257;28;20493;-59
2023/04/24 05:36:20;;;;;;;2.73;1.20;;;16.30;1.00;;;;;;5045957;28;20227;-61
2023/04/24 05:38:46;;;;;;;2.93;1.60;;;16.30;1.00;;;;;;5046842;28;20219;-62
2023/04/24 05:41:12;;;;;;;1.43;0.90;;;16.40;1.00;;;;;;5046657;28;20218;-59
2023/04/24 05:43:37;;;;;;;3.30;1.30;;;16.40;1.00;;;;;;5045419;28;20188;-60
2023/04/24 05:46:03;;;;;;;3.57;1.33;;;16.40;1.00;;;;;;5047006;28;20185;-60
2023/04/24 05:48:28;;;;;;;3.60;1.50;;;16.40;1.00;;;;;;5049143;28;20185;-60
2023/04/24 05:50:54;;;;;;;3.10;1.60;;;16.50;1.00;;;;;;5049494;28;20720;-59
2023/04/24 05:53:20;;;;;;;3.77;1.67;;;16.60;1.00;;;;;;5048913;28;20196;-60
2023/04/24 05:55:46;;;;;;;4.13;2.10;;;16.70;1.00;;;;;;5048084;28;20706;-61
2023/04/24 05:58:12;;;;;;;4.03;1.70;;;16.80;1.00;;;;;;5045453;28;20833;-59
2023/04/24 06:00:39;;;;;;;2.30;1.90;;;16.90;1.00;;;;;;5048399;28;20453;-60
2023/04/24 06:03:05;;;;;;;2.07;1.87;;;17.00;1.00;;;;;;5047729;28;20212;-61
2023/04/24 06:05:31;;;;;;;5.10;1.77;;;17.00;1.00;;;;;;5048307;28;20799;-59
2023/04/24 06:07:57;;;;;;;1.83;1.57;;;17.10;1.00;;;;;;5049083;28;20181;-58
2023/04/24 06:10:22;;;;;;;2.10;1.53;;;17.20;1.00;;;;;;5044732;28;20242;-60
2023/04/24 06:12:48;;;;;;;1.90;1.70;;;17.20;99.90;;;;;;5045932;28;20192;-61
2023/04/24 06:15:13;;;;;;;2.40;1.60;;;17.30;1.00;;;;;;5046191;28;20196;-58
2023/04/24 06:17:39;;;;;;;3.47;1.57;;;17.30;99.90;;;;;;5044773;28;20216;-60
2023/04/24 06:20:06;;;;;;;4.37;1.27;;;17.10;99.90;;;;;;5045600;28;20185;-60
2023/04/24 06:22:32;;;;;;;2.10;1.07;;;17.60;99.90;;;;;;5044566;28;20275;-60
2023/04/24 06:24:59;;;;;;;1.63;1.50;;;17.60;99.90;;;;;;5047534;28;20446;-60
2023/04/24 06:27:24;;;;;;;2.20;1.10;;;17.70;99.90;;;;;;5046815;28;20270;-60
2023/04/24 06:29:54;;;;;;;3.40;1.10;;;17.90;99.90;;;;;;5045986;28;20604;-60
2023/04/24 06:32:23;;;;;;;1.47;1.23;;;18.00;99.90;;;;;;5047204;28;20188;-60
2023/04/24 06:34:49;;;;;;;2.03;1.40;;;17.90;99.90;;;;;;5045306;28;20447;-60
2023/04/24 06:37:16;;;;;;;2.17;0.93;;;18.10;99.90;;;;;;5042819;28;20820;-60
2023/04/24 06:39:41;;;;;;;1.40;1.10;;;17.40;99.90;;;;;;5045277;28;20280;-60
2023/04/24 06:42:09;;;;;;;1.90;1.20;;;18.30;99.90;;;;;;5046638;28;20526;-59
2023/04/24 06:44:40;;;;;;;2.27;1.53;;;18.00;99.90;;;;;;5045660;28;20176;-60
2023/04/24 06:47:09;;;;;;;2.10;1.07;;;17.70;99.90;;;;;;5043730;28;20451;-60
2023/04/24 06:49:36;;;;;;;2.50;1.70;;;17.60;99.90;;;;;;5046078;28;20446;-59
2023/04/24 06:52:02;;;;;;;2.80;1.50;;;17.70;99.90;;;;;;5049622;28;20988;-60
2023/04/24 06:54:29;;;;;;;2.47;1.60;;;17.70;99.90;;;;;;5048167;28;20443;-59
2023/04/24 06:56:55;;;;;;;2.10;1.10;;;17.90;99.90;;;;;;5047523;28;20784;-60
2023/04/24 06:59:20;;;;;;;2.13;1.43;;;18.00;99.90;;;;;;5046710;28;20443;-60
2023/04/24 07:01:46;;;;;;;1.73;0.97;;;18.10;99.90;;;;;;5048307;28;20264;-60
2023/04/24 07:04:12;;;;;;;2.10;1.60;;;18.20;99.90;;;;;;5046380;28;20184;-59
2023/04/24 07:06:39;;;;;;;1.67;1.50;;;18.30;99.90;;;;;;5045817;28;20666;-59
2023/04/24 07:09:04;;;;;;;1.33;1.00;;;18.20;99.90;;;;;;5042275;28;20454;-60
2023/04/24 07:11:30;;;;;;;1.13;0.80;;;18.50;99.90;;;;;;5046566;28;20424;-60
2023/04/24 07:13:56;;;;;;;1.57;0.80;;;18.80;99.90;;;;;;5042211;28;20196;-59
2023/04/24 07:16:21;;;;;;;1.20;1.10;;;19.00;99.90;;;;;;5048032;28;20550;-60
2023/04/24 07:18:47;;;;;;;1.10;0.87;;;19.40;99.90;;;;;;5050062;28;20203;-59
2023/04/24 07:21:13;;;;;;;3.83;0.90;;;19.50;99.90;;;;;;5051748;28;20230;-60
2023/04/24 07:23:38;;;;;;;1.20;1.00;;;19.50;99.90;;;;;;5050078;28;20180;-60
2023/04/24 07:26:05;;;;;;;1.17;0.83;;;19.40;99.90;;;;;;5046971;28;20627;-60
2023/04/24 07:28:31;;;;;;;1.27;0.90;;;19.30;99.90;;;;;;5057715;28;20339;-59
2023/04/24 07:30:57;;;;;;;1.00;0.90;;;19.30;99.90;;;;;;5041581;28;20455;-60
2023/04/24 07:33:23;;;;;;;1.00;0.70;;;19.20;99.90;;;;;;5044432;28;20455;-59
2023/04/24 07:35:48;;;;;;;1.70;0.87;;;19.30;99.90;;;;;;5044026;28;20455;-60
2023/04/24 07:38:14;;;;;;;1.67;0.73;;;19.20;99.90;;;;;;5046841;28;20351;-59
2023/04/24 07:40:40;;;;;;;1.50;0.97;;;19.10;99.90;;;;;;5046857;28;20206;-59
2023/04/24 07:43:05;;;;;;;2.63;0.90;;;19.00;99.90;;;;;;5047622;28;20168;-59
2023/04/24 07:45:33;;;;;;;1.87;0.60;;;19.10;99.90;;;;;;5043579;28;20238;-59
2023/04/24 07:47:59;;;;;;;2.13;1.20;;;19.30;99.90;;;;;;5046756;28;20191;-60
2023/04/24 07:50:24;;;;;;;1.23;0.67;;;19.40;99.90;;;;;;5040417;28;20450;-59
2023/04/24 07:52:50;;;;;;;4.90;0.87;;;19.40;99.90;;;;;;5047881;28;20270;-59
2023/04/24 07:55:16;;;;;;;2.73;1.10;;;19.30;99.90;;;;;;5042661;28;20223;-60
2023/04/24 07:57:41;;;;;;;1.00;0.70;;;19.50;99.90;;;;;;5050575;28;20239;-59
2023/04/24 08:00:07;;;;;;;2.40;0.80;;;19.70;99.90;;;;;;5046581;28;20177;-59
2023/04/24 08:02:33;;;;;;;3.60;0.97;;;19.50;99.90;;;;;;5048972;28;20195;-60
2023/04/24 08:04:59;;;;;;;1.77;0.87;;;19.50;99.90;;;;;;5050222;28;20447;-60
2023/04/24 08:07:24;;;;;;;2.03;1.00;;;19.30;99.90;;;;;;5047842;28;20211;-60
2023/04/24 08:09:50;;;;;;;1.10;0.70;;;19.30;99.90;;;;;;5048331;28;20625;-60
2023/04/24 08:12:16;;;;;;;0.97;0.87;;;19.50;99.90;;;;;;5050915;28;20180;-61
2023/04/24 08:14:41;;;;;;;1.73;0.83;;;19.80;99.90;;;;;;5045398;28;20201;-59
2023/04/24 08:17:07;;;;;;;2.97;1.30;;;19.70;99.90;;;;;;5050886;28;20200;-60
2023/04/24 08:19:32;;;;;;;1.10;0.60;;;19.80;99.90;;;;;;5048610;28;20291;-60
2023/04/24 08:21:58;;;;;;;1.97;1.10;;;20.10;99.90;;;;;;5047906;28;20192;-60
2023/04/24 08:24:24;;;;;;;3.00;0.67;;;20.30;99.90;;;;;;5052703;28;20519;-60
2023/04/24 08:26:51;;;;;;;1.70;0.80;;;20.50;99.90;;;;;;5049141;28;20314;-59
2023/04/24 08:29:17;;;;;;;1.83;0.90;;;20.60;99.90;;;;;;5039599;28;20188;-60
2023/04/24 08:31:42;;;;;;;1.83;0.73;;;20.20;99.90;;;;;;5049457;28;20454;-60
2023/04/24 08:34:09;;;;;;;2.27;0.67;;;20.00;99.90;;;;;;5045379;28;20259;-60
2023/04/24 08:36:36;;;;;;;1.87;0.90;;;19.80;99.90;;;;;;5047205;28;20254;-59
2023/04/24 08:39:01;;;;;;;1.50;0.80;;;19.80;99.90;;;;;;5050525;28;20470;-59
2023/04/24 08:41:27;;;;;;;0.90;0.80;;;19.90;99.90;;;;;;5050568;28;20681;-59
2023/04/24 08:43:54;;;;;;;2.63;1.40;;;19.60;99.90;;;;;;5050323;28;20242;-60
2023/04/24 08:46:21;;;;;;;1.20;0.90;;;19.60;99.90;;;;;;5047956;28;20421;-59
2023/04/24 08:48:48;;;;;;;1.20;0.73;;;19.70;99.90;;;;;;5049088;28;20736;-58
2023/04/24 08:51:15;;;;;;;1.40;0.60;;;19.40;99.90;;;;;;5043181;28;20415;-59
2023/04/24 08:53:40;;;;;;;1.93;0.67;;;19.30;99.90;;;;;;5044283;28;20965;-59
2023/04/24 08:56:06;;;;;;;1.13;0.70;;;19.50;99.90;;;;;;5041472;28;20478;-59
2023/04/24 08:58:33;;;;;;;1.13;0.80;;;19.40;99.90;;;;;;5046981;28;20215;-60
2023/04/24 09:00:58;;;;;;;1.00;0.83;;;19.50;99.90;;;;;;5045384;28;20538;-60
2023/04/24 09:03:27;;;;;;;0.90;0.70;;;19.50;99.90;;;;;;5047189;28;20549;-59
2023/04/24 09:05:54;;;;;;;1.30;1.20;;;19.60;99.90;;;;;;5045453;28;20417;-60
2023/04/24 09:08:22;;;;;;;1.30;0.93;;;19.70;99.90;;;;;;5047643;28;20451;-60
2023/04/24 09:10:47;;;;;;;1.77;0.90;;;19.90;99.90;;;;;;5042858;28;20442;-60
2023/04/24 09:13:14;;;;;;;1.10;0.70;;;20.30;99.90;;;;;;5044847;28;20453;-59
2023/04/24 09:15:41;;;;;;;1.10;1.00;;;20.20;99.90;;;;;;5045762;28;20204;-60
2023/04/24 09:18:06;;;;;;;2.03;0.67;;;20.10;99.90;;;;;;5047628;28;20516;-59
2023/04/24 09:20:32;;;;;;;1.80;0.67;;;20.00;99.90;;;;;;5043847;28;20447;-59
2023/04/24 09:22:58;;;;;;;1.30;1.00;;;19.80;99.90;;;;;;5048930;28;20622;-58
2023/04/24 09:25:35;;;;;;;2.80;1.10;;;20.00;99.90;;;;;;5046656;28;20453;-60
2023/04/24 09:28:05;;;;;;;0.87;0.70;;;19.60;99.90;;;;;;5048099;28;20207;-58
2023/04/24 09:30:31;;;;;;;1.30;1.07;;;18.90;99.90;;;;;;5045202;28;21030;-59
2023/04/24 09:33:15;;;;;;;1.20;0.90;;;18.80;99.90;;;;;;5043082;28;20447;-60
2023/04/24 09:35:51;;;;;;;1.40;0.83;;;18.70;99.90;;;;;;5046741;28;20200;-59
2023/04/24 09:38:17;;;;;;;1.73;0.90;;;18.60;99.90;;;;;;5046141;28;20524;-60
2023/04/24 09:40:43;;;;;;;1.20;0.90;;;18.90;99.90;;;;;;5046303;28;20459;-59
2023/04/24 09:43:11;;;;;;;1.40;1.07;;;19.10;99.90;;;;;;5049865;28;20216;-59
2023/04/24 09:45:39;;;;;;;1.93;0.97;;;19.50;99.90;;;;;;5048046;28;20647;-59
2023/04/24 09:48:06;;;;;;;2.40;0.97;;;19.20;99.90;;;;;;5046182;28;20482;-60
2023/04/24 09:50:34;;;;;;;1.33;0.90;;;19.20;99.90;;;;;;5045506;28;20457;-59
2023/04/24 09:53:03;;;;;;;0.70;0.70;;;19.30;99.90;;;;;;5048743;28;20450;-59
2023/04/24 09:55:29;;;;;;;0.90;0.70;;;19.20;99.90;;;;;;5046314;28;20919;-60
2023/04/24 09:58:00;;;;;;;1.70;0.70;;;19.00;99.90;;;;;;5047822;28;20471;-59
2023/04/24 10:00:30;;;;;;;1.57;0.70;;;19.00;99.90;;;;;;5049053;28;20438;-60
2023/04/24 10:03:01;;;;;;;3.23;0.80;;;18.90;99.90;;;;;;5048057;28;20469;-60
2023/04/24 10:05:38;;;;;;;2.30;0.80;;;18.80;99.90;;;;;;5046950;28;21014;-60
2023/04/24 10:08:10;;;;;;;0.70;0.50;;;19.00;99.90;;;;;;5043302;28;20496;-59
2023/04/24 10:10:44;;;;;;;1.10;0.80;;;19.10;99.90;;;;;;5051079;28;20470;-59
2023/04/24 10:13:10;;;;;;;1.40;1.10;;;19.30;99.90;;;;;;5069130;28;21051;-59
2023/04/24 10:15:37;;;;;;;0.90;0.50;;;19.50;99.90;;;;;;5057335;28;20806;-59
2023/04/24 10:18:06;;;;;;;1.83;1.00;;;19.40;99.90;;;;;;5048878;28;20475;-60
2023/04/24 10:20:32;;;;;;;1.33;0.90;;;19.40;99.90;;;;;;5048773;28;20418;-58
2023/04/24 10:22:59;;;;;;;2.83;1.57;;;19.30;99.90;;;;;;5049150;28;20522;-60
2023/04/24 10:25:27;;;;;;;2.03;0.80;;;19.40;99.90;;;;;;5043115;28;20418;-60
2023/04/24 10:27:59;;;;;;;2.73;1.00;;;19.60;99.90;;;;;;5046609;28;20915;-60
2023/04/24 10:30:25;;;;;;;1.43;0.90;;;20.00;99.90;;;;;;5047652;28;20457;-60
2023/04/24 10:32:51;;;;;;;1.77;0.83;;;20.30;99.90;;;;;;5048568;28;20434;-60
2023/04/24 10:35:19;;;;;;;1.00;0.70;;;20.40;99.90;;;;;;5047062;28;20451;-59
2023/04/24 10:37:57;;;;;;;2.30;1.60;;;20.40;99.90;;;;;;5046152;28;20207;-59
2023/04/24 10:40:42;;;;;;;1.53;0.80;;;20.50;99.90;;;;;;5048427;28;20586;-61
2023/04/24 10:43:11;;;;;;;0.80;0.50;;;19.90;99.90;;;;;;5046417;28;20420;-59
2023/04/24 10:45:38;;;;;;;1.03;0.63;;;19.70;99.90;;;;;;5045051;28;20534;-59
2023/04/24 10:48:06;;;;;;;3.23;0.97;;;19.60;99.90;;;;;;5048296;28;20402;-59
2023/04/24 10:50:53;;;;;;;1.37;0.67;;;19.60;99.90;;;;;;5046342;28;20535;-61
2023/04/24 10:53:26;;;;;;;3.23;0.70;;;19.90;99.90;;;;;;5048054;28;20514;-61
2023/04/24 10:56:13;;;;;;;1.10;0.87;;;20.10;99.90;;;;;;5045723;28;21041;-60
2023/04/24 10:58:44;;;;;;;2.70;2.10;;;20.40;99.90;;;;;;5045571;28;20447;-58
2023/04/24 11:01:26;;;;;;;3.50;1.73;;;20.50;99.90;;;;;;5048008;28;20508;-59
2023/04/24 11:03:58;;;;;;;1.63;0.70;;;20.70;99.90;;;;;;5042981;28;20960;-60
2023/04/24 11:06:34;;;;;;;1.00;0.70;;;21.00;99.90;;;;;;5045622;28;20454;-60
2023/04/24 11:09:09;;;;;;;1.33;1.10;;;21.00;99.90;;;;;;5047085;28;20449;-59
2023/04/24 11:11:37;;;;;;;1.50;0.73;;;20.90;99.90;;;;;;5046856;28;20425;-60
2023/04/24 11:14:06;;;;;;;1.00;0.90;;;20.50;99.90;;;;;;5047510;28;20444;-60
2023/04/24 11:16:53;;;;;;;3.33;0.93;;;20.00;99.90;;;;;;5048369;28;20464;-60
2023/04/24 11:19:26;;;;;;;3.00;1.00;;;19.40;99.90;;;;;;5046088;28;21010;-60
2023/04/24 11:21:57;;;;;;;1.00;0.70;;;19.10;99.90;;;;;;5047462;28;20991;-60
2023/04/24 11:24:47;;;;;;;3.80;1.00;;;19.10;99.90;;;;;;5047319;28;20439;-59
2023/04/24 11:27:22;;;;;;;0.77;0.70;;;19.10;99.90;;;;;;5047065;28;20451;-60
2023/04/24 11:29:56;;;;;;;0.80;0.60;;;19.20;99.90;;;;;;5048382;28;20823;-63
2023/04/24 11:32:32;;;;;;;1.67;0.70;;;19.30;99.90;;;;;;5046014;28;20447;-61
2023/04/24 11:35:27;;;;;;;1.33;0.67;;;19.40;99.90;;;;;;5047482;28;20413;-59
2023/04/24 11:37:54;;;;;;;1.73;1.00;;;19.50;99.90;;;;;;5042962;28;20470;-60
2023/04/24 11:40:25;;;;;;;1.37;0.70;;;19.80;99.90;;;;;;5048119;28;20462;-59
2023/04/24 11:42:52;;;;;;;1.80;0.90;;;20.20;99.90;;;;;;5046960;28;20413;-59
2023/04/24 11:45:22;;;;;;;1.57;0.70;;;20.40;99.90;;;;;;5047889;28;20526;-59
2023/04/24 11:47:47;;;;;;;0.73;0.63;;;20.50;99.90;;;;;;5044243;28;20465;-59
2023/04/24 11:50:16;;;;;;;2.10;1.00;;;20.70;99.90;;;;;;5046278;28;20545;-61
2023/04/24 11:52:45;;;;;;;1.90;0.83;;;21.00;99.90;;;;;;5043076;28;20719;-58
2023/04/24 11:55:14;;;;;;;1.93;0.60;;;21.20;99.90;;;;;;5045896;28;20532;-59
2023/04/24 11:57:44;;;;;;;1.00;0.80;;;21.30;99.90;;;;;;5045197;28;20855;-60
2023/04/24 12:00:21;;;;;;;1.50;0.90;;;21.50;99.90;;;;;;5044448;28;20999;-60
2023/04/24 12:02:48;;;;;;;1.50;0.90;;;21.30;99.90;;;;;;5038122;28;20500;-60
2023/04/24 12:05:27;;;;;;;1.43;1.03;;;21.10;99.90;;;;;;5045284;28;20793;-59
2023/04/24 12:07:53;;;;;;;1.67;0.60;;;20.90;99.90;;;;;;5050196;28;20417;-60
2023/04/24 12:10:29;;;;;;;1.90;0.80;;;20.40;99.90;;;;;;5047242;28;20428;-61
2023/04/24 12:12:56;;;;;;;1.70;0.90;;;19.90;99.90;;;;;;5055887;28;20469;-60
2023/04/24 12:15:23;;;;;;;2.83;1.00;;;19.40;99.90;;;;;;5051144;28;20410;-59
2023/04/24 12:17:51;;;;;;;1.13;1.00;;;19.00;99.90;;;;;;5049693;28;20501;-59
2023/04/24 12:20:23;;;;;;;1.60;1.00;;;18.70;99.90;;;;;;5050860;28;20438;-59
2023/04/24 12:22:54;;;;;;;1.43;0.90;;;18.60;99.90;;;;;;5048892;28;20443;-59
2023/04/24 12:25:22;;;;;;;0.80;0.70;;;18.70;99.90;;;;;;5051363;28;20718;-59
2023/04/24 12:28:13;;;;;;;2.70;0.80;;;18.80;99.90;;;;;;5048693;28;20496;-59
2023/04/24 12:30:50;;;;;;;0.90;0.67;;;18.70;99.90;;;;;;5050297;28;20427;-59
2023/04/24 12:33:21;;;;;;;5.20;1.20;;;18.60;99.90;;;;;;5048767;28;20466;-59
2023/04/24 12:35:53;;;;;;;2.30;1.00;;;18.60;99.90;;;;;;5049827;28;20405;-60
2023/04/24 12:38:22;;;;;;;1.10;1.00;;;18.70;99.90;;;;;;5050246;28;20557;-60
2023/04/24 12:41:00;;;;;;;1.67;1.00;;;19.10;99.90;;;;;;5049513;28;20425;-60
2023/04/24 12:43:26;;;;;;;2.73;1.10;;;19.50;99.90;;;;;;5048781;28;20449;-61
2023/04/24 12:45:52;;;;;;;1.97;1.10;;;19.60;99.90;;;;;;5049631;28;20833;-61
2023/04/24 12:48:17;;;;;;;1.10;1.00;;;19.50;99.90;;;;;;5048445;28;20234;-59
2023/04/24 12:50:43;;;;;;;1.43;1.10;;;18.90;99.90;;;;;;5049100;28;20227;-59
2023/04/24 12:53:09;;;;;;;3.47;1.27;;;18.70;99.90;;;;;;5063075;28;20191;-60